createdAt,value
2023-04-15T00:00:08.739Z,3746.00
2023-04-15T00:01:08.775Z,3666.00
2023-04-15T00:02:08.844Z,3567.00
2023-04-15T00:03:09.031Z,3494.00
2023-04-15T00:04:08.952Z,3425.00
2023-04-15T00:05:08.919Z,3407.00
2023-04-15T00:06:09.008Z,3486.00
2023-04-15T00:07:08.972Z,3411.00
2023-04-15T00:08:09.002Z,3359.00
2023-04-15T00:09:09.057Z,3246.00
2023-04-15T00:10:09.160Z,3049.00
2023-04-15T00:11:09.258Z,2853.00
2023-04-15T00:12:09.336Z,2785.00
2023-04-15T00:13:09.474Z,2799.00
2023-04-15T00:14:09.509Z,2953.00
2023-04-15T00:15:09.607Z,2885.00
2023-04-15T00:16:09.703Z,2850.00
2023-04-15T00:17:09.734Z,2625.00
2023-04-15T00:18:09.856Z,2532.00
2023-04-15T00:19:10.068Z,2537.00
2023-04-15T00:20:10.335Z,2409.00
2023-04-15T00:21:10.593Z,2372.00
2023-04-15T00:22:10.814Z,2437.00
2023-04-15T00:23:11.080Z,2691.00
2023-04-15T00:24:11.372Z,3214.00
2023-04-15T00:25:11.500Z,3541.00
2023-04-15T00:26:11.613Z,3364.00
2023-04-15T00:27:11.750Z,3087.00
2023-04-15T00:28:11.838Z,3104.00
2023-04-15T00:29:11.933Z,2872.00
2023-04-15T00:30:12.014Z,2933.00
2023-04-15T00:31:12.131Z,2729.00
2023-04-15T00:32:12.307Z,2145.00
2023-04-15T00:33:12.565Z,1618.00
2023-04-15T00:34:12.717Z,1183.00
2023-04-15T00:35:12.827Z,841.00
2023-04-15T00:36:12.914Z,742.00
2023-04-15T00:37:12.967Z,578.00
2023-04-15T00:38:13.029Z,502.00
2023-04-15T00:39:13.086Z,498.00
2023-04-15T00:40:13.228Z,491.00
2023-04-15T00:41:13.272Z,431.00
2023-04-15T00:42:13.328Z,416.00
2023-04-15T00:43:13.391Z,499.00
2023-04-15T00:44:13.470Z,528.00
2023-04-15T00:45:13.535Z,556.00
2023-04-15T00:46:13.718Z,503.00
2023-04-15T00:47:13.844Z,494.00
2023-04-15T00:48:13.979Z,497.00
2023-04-15T00:49:14.048Z,520.00
2023-04-15T00:50:14.114Z,565.00
2023-04-15T00:51:14.176Z,795.00
2023-04-15T00:52:14.243Z,1218.00
2023-04-15T00:53:14.408Z,1646.00
2023-04-15T00:54:14.476Z,2201.00
2023-04-15T00:55:14.575Z,2776.00
2023-04-15T00:56:14.645Z,2939.00
2023-04-15T00:57:14.708Z,3058.00
2023-04-15T00:58:14.779Z,3414.00
2023-04-15T00:59:14.916Z,3889.00
2023-04-15T01:00:15.072Z,4375.00
2023-04-15T01:01:15.224Z,4524.00
2023-04-15T01:02:15.396Z,4517.00
2023-04-15T01:03:15.465Z,4077.00
2023-04-15T01:04:15.573Z,3749.00
2023-04-15T01:05:15.722Z,3185.00
2023-04-15T01:06:15.980Z,2668.00
2023-04-15T01:07:16.243Z,2117.00
2023-04-15T01:08:16.489Z,1699.00
2023-04-15T01:09:16.731Z,1507.00
2023-04-15T01:10:16.953Z,1377.00
2023-04-15T01:11:17.157Z,625.00
2023-04-15T01:12:17.356Z,440.00
2023-04-15T01:13:17.662Z,400.00
2023-04-15T01:14:17.860Z,493.00
2023-04-15T01:15:18.147Z,553.00
2023-04-15T01:16:18.425Z,619.00
2023-04-15T01:17:18.669Z,791.00
2023-04-15T01:18:18.910Z,916.00
2023-04-15T01:19:19.168Z,826.00
2023-04-15T01:20:19.456Z,929.00
2023-04-15T01:21:19.665Z,1147.00
2023-04-15T01:22:19.900Z,1524.00
2023-04-15T01:23:20.158Z,2055.00
2023-04-15T01:24:20.427Z,2424.00
2023-04-15T01:25:20.696Z,2718.00
2023-04-15T01:26:20.988Z,2954.00
2023-04-15T01:27:21.295Z,3152.00
2023-04-15T01:28:21.602Z,3173.00
2023-04-15T01:29:21.882Z,3153.00
2023-04-15T01:30:22.189Z,3138.00
2023-04-15T01:31:22.541Z,2917.00
2023-04-15T01:32:22.813Z,2757.00
2023-04-15T01:33:23.034Z,2970.00
2023-04-15T01:34:23.322Z,3271.00
2023-04-15T01:35:23.635Z,3474.00
2023-04-15T01:36:23.881Z,3429.00
2023-04-15T01:37:24.179Z,3289.00
2023-04-15T01:38:24.493Z,3165.00
2023-04-15T01:39:24.770Z,3206.00
2023-04-15T01:40:25.057Z,3240.00
2023-04-15T01:41:25.345Z,3278.00
2023-04-15T01:42:25.665Z,3351.00
2023-04-15T01:43:25.956Z,3323.00
2023-04-15T01:44:26.276Z,3173.00
2023-04-15T01:45:26.575Z,3069.00
2023-04-15T01:46:26.908Z,3034.00
2023-04-15T01:47:27.249Z,2788.00
2023-04-15T01:48:27.377Z,2631.00
2023-04-15T01:49:27.692Z,2559.00
2023-04-15T01:50:27.972Z,2446.00
2023-04-15T01:51:28.260Z,2003.00
2023-04-15T01:52:28.542Z,1641.00
2023-04-15T01:53:28.825Z,1409.00
2023-04-15T01:54:29.095Z,1119.00
2023-04-15T01:55:29.381Z,1020.00
2023-04-15T01:56:29.666Z,992.00
2023-04-15T01:57:29.958Z,996.00
2023-04-15T01:58:30.242Z,1153.00
2023-04-15T01:59:30.529Z,1436.00
2023-04-15T02:00:30.830Z,1315.00
2023-04-15T02:01:31.154Z,1131.00
2023-04-15T02:02:31.490Z,1174.00
2023-04-15T02:03:31.638Z,1238.00
2023-04-15T02:04:31.808Z,1395.00
2023-04-15T02:05:32.009Z,1501.00
2023-04-15T02:06:32.292Z,1573.00
2023-04-15T02:07:32.502Z,1698.00
2023-04-15T02:08:32.682Z,1943.00
2023-04-15T02:09:33.076Z,2082.00
2023-04-15T02:10:33.352Z,2098.00
2023-04-15T02:11:33.637Z,2082.00
2023-04-15T02:12:33.905Z,2028.00
2023-04-15T02:13:34.157Z,1920.00
2023-04-15T02:14:34.431Z,1765.00
2023-04-15T02:15:34.704Z,1650.00
2023-04-15T02:16:35.195Z,1621.00
2023-04-15T02:17:35.190Z,1609.00
2023-04-15T02:18:35.441Z,1538.00
2023-04-15T02:19:35.653Z,1606.00
2023-04-15T02:20:36.029Z,1830.00
2023-04-15T02:21:36.336Z,1997.00
2023-04-15T02:22:36.648Z,1953.00
2023-04-15T02:23:36.950Z,1706.00
2023-04-15T02:24:37.252Z,1501.00
2023-04-15T02:25:37.536Z,1338.00
2023-04-15T02:26:37.842Z,1177.00
2023-04-15T02:27:38.143Z,849.00
2023-04-15T02:28:38.443Z,583.00
2023-04-15T02:29:38.737Z,428.00
2023-04-15T02:30:39.004Z,400.00
2023-04-15T02:31:39.258Z,400.00
2023-04-15T02:32:39.536Z,400.00
2023-04-15T02:33:39.728Z,400.00
2023-04-15T02:34:39.972Z,400.00
2023-04-15T02:35:40.218Z,400.00
2023-04-15T02:36:41.468Z,400.00
2023-04-15T02:37:40.650Z,400.00
2023-04-15T02:38:40.751Z,400.00
2023-04-15T02:39:40.831Z,400.00
2023-04-15T02:40:40.953Z,400.00
2023-04-15T02:41:41.058Z,400.00
2023-04-15T02:42:41.190Z,400.00
2023-04-15T02:43:41.293Z,401.00
2023-04-15T02:44:41.410Z,580.00
2023-04-15T02:45:41.544Z,643.00
2023-04-15T02:46:41.645Z,956.00
2023-04-15T02:47:41.849Z,1504.00
2023-04-15T02:48:41.931Z,1998.00
2023-04-15T02:49:41.991Z,2174.00
2023-04-15T02:50:42.122Z,2084.00
2023-04-15T02:51:42.193Z,1958.00
2023-04-15T02:52:42.307Z,1896.00
2023-04-15T02:53:42.409Z,1675.00
2023-04-15T02:54:42.493Z,1489.00
2023-04-15T02:55:42.600Z,1416.00
2023-04-15T02:56:42.693Z,1263.00
2023-04-15T02:57:42.812Z,1129.00
2023-04-15T02:58:42.926Z,1020.00
2023-04-15T02:59:43.032Z,948.00
2023-04-15T03:00:43.145Z,778.00
2023-04-15T03:01:43.292Z,639.00
2023-04-15T03:02:43.671Z,528.00
2023-04-15T03:03:43.533Z,426.00
2023-04-15T03:04:43.646Z,400.00
2023-04-15T03:05:43.713Z,400.00
2023-04-15T03:06:43.845Z,400.00
2023-04-15T03:07:43.970Z,400.00
2023-04-15T03:08:44.074Z,400.00
2023-04-15T03:09:44.215Z,400.00
2023-04-15T03:10:44.331Z,400.00
2023-04-15T03:11:44.426Z,400.00
2023-04-15T03:12:44.651Z,427.00
2023-04-15T03:13:44.947Z,515.00
2023-04-15T03:14:45.226Z,584.00
2023-04-15T03:15:45.369Z,578.00
2023-04-15T03:16:45.451Z,583.00
2023-04-15T03:17:46.044Z,645.00
2023-04-15T03:18:45.666Z,854.00
2023-04-15T03:19:45.791Z,1026.00
2023-04-15T03:20:45.926Z,978.00
2023-04-15T03:21:46.015Z,929.00
2023-04-15T03:22:46.105Z,1130.00
2023-04-15T03:23:46.200Z,1156.00
2023-04-15T03:24:46.291Z,1138.00
2023-04-15T03:25:46.387Z,884.00
2023-04-15T03:26:46.487Z,871.00
2023-04-15T03:27:46.573Z,1084.00
2023-04-15T03:28:46.662Z,1257.00
2023-04-15T03:29:46.767Z,1369.00
2023-04-15T03:30:46.881Z,1757.00
2023-04-15T03:31:47.002Z,2284.00
2023-04-15T03:32:47.168Z,2541.00
2023-04-15T03:33:47.234Z,2634.00
2023-04-15T03:34:47.362Z,2486.00
2023-04-15T03:35:47.474Z,2236.00
2023-04-15T03:36:47.564Z,2024.00
2023-04-15T03:37:47.645Z,2014.00
2023-04-15T03:38:47.778Z,2527.00
2023-04-15T03:39:47.836Z,3141.00
2023-04-15T03:40:47.938Z,3540.00
2023-04-15T03:41:48.031Z,3994.00
2023-04-15T03:42:48.117Z,4399.00
2023-04-15T03:43:48.220Z,4391.00
2023-04-15T03:44:48.309Z,4053.00
2023-04-15T03:45:48.398Z,3383.00
2023-04-15T03:46:48.571Z,2802.00
2023-04-15T03:47:48.591Z,3033.00
2023-04-15T03:48:48.680Z,3241.00
2023-04-15T03:49:48.746Z,3528.00
2023-04-15T03:50:48.810Z,3084.00
2023-04-15T03:51:48.891Z,3213.00
2023-04-15T03:52:50.722Z,3226.00
2023-04-15T03:53:49.048Z,3334.00
2023-04-15T03:54:49.140Z,3490.00
2023-04-15T03:55:49.249Z,3747.00
2023-04-15T03:56:49.332Z,3934.00
2023-04-15T03:57:49.478Z,3947.00
2023-04-15T03:58:49.630Z,3994.00
2023-04-15T03:59:49.772Z,4276.00
2023-04-15T04:00:49.929Z,4233.00
2023-04-15T04:01:50.171Z,4179.00
2023-04-15T04:02:50.415Z,4202.00
2023-04-15T04:03:50.604Z,4124.00
2023-04-15T04:04:50.753Z,4120.00
2023-04-15T04:05:50.654Z,4172.00
2023-04-15T04:06:50.726Z,4171.00
2023-04-15T04:07:50.803Z,3998.00
2023-04-15T04:08:50.911Z,3796.00
2023-04-15T04:09:50.992Z,3468.00
2023-04-15T04:10:51.107Z,3365.00
2023-04-15T04:11:51.245Z,3341.00
2023-04-15T04:12:51.357Z,3273.00
2023-04-15T04:13:51.439Z,3255.00
2023-04-15T04:14:51.535Z,3089.00
2023-04-15T04:15:51.744Z,2815.00
2023-04-15T04:16:52.039Z,2781.00
2023-04-15T04:17:52.200Z,2682.00
2023-04-15T04:18:52.291Z,2579.00
2023-04-15T04:19:52.409Z,2584.00
2023-04-15T04:20:52.514Z,2775.00
2023-04-15T04:21:52.625Z,2545.00
2023-04-15T04:22:52.707Z,1846.00
2023-04-15T04:23:52.782Z,1352.00
2023-04-15T04:24:52.845Z,877.00
2023-04-15T04:25:52.894Z,629.00
2023-04-15T04:26:52.944Z,514.00
2023-04-15T04:27:52.995Z,499.00
2023-04-15T04:28:53.104Z,582.00
2023-04-15T04:29:53.231Z,867.00
2023-04-15T04:30:53.346Z,1104.00
2023-04-15T04:31:53.504Z,1061.00
2023-04-15T04:32:53.562Z,920.00
2023-04-15T04:33:53.810Z,662.00
2023-04-15T04:34:54.056Z,595.00
2023-04-15T04:35:54.298Z,494.00
2023-04-15T04:36:54.546Z,471.00
2023-04-15T04:37:54.787Z,465.00
2023-04-15T04:38:55.011Z,458.00
2023-04-15T04:39:55.245Z,417.00
2023-04-15T04:40:55.472Z,400.00
2023-04-15T04:41:55.698Z,400.00
2023-04-15T04:42:55.926Z,400.00
2023-04-15T04:43:56.972Z,400.00
2023-04-15T04:44:56.015Z,400.00
2023-04-15T04:45:56.088Z,400.00
2023-04-15T04:46:56.129Z,400.00
2023-04-15T04:47:56.297Z,400.00
2023-04-15T04:48:56.234Z,400.00
2023-04-15T04:49:56.282Z,400.00
2023-04-15T04:50:56.330Z,400.00
2023-04-15T04:51:56.395Z,400.00
2023-04-15T04:52:56.449Z,400.00
2023-04-15T04:53:56.501Z,400.00
2023-04-15T04:54:56.539Z,400.00
2023-04-15T04:55:56.587Z,400.00
2023-04-15T04:56:56.638Z,400.00
2023-04-15T04:57:56.683Z,400.00
2023-04-15T04:58:56.734Z,400.00
2023-04-15T04:59:56.855Z,450.00
2023-04-15T05:00:57.093Z,484.00
2023-04-15T05:01:57.400Z,559.00
2023-04-15T05:02:57.687Z,639.00
2023-04-15T05:03:57.900Z,852.00
2023-04-15T05:04:58.099Z,1167.00
2023-04-15T05:05:58.377Z,1157.00
2023-04-15T05:06:58.613Z,1596.00
2023-04-15T05:07:58.919Z,2430.00
2023-04-15T05:08:59.302Z,3000.00
2023-04-15T05:09:59.291Z,2846.00
2023-04-15T05:10:59.403Z,2964.00
2023-04-15T05:11:59.473Z,3660.00
2023-04-15T05:12:59.569Z,4471.00
2023-04-15T05:13:59.651Z,5245.00
2023-04-15T05:14:59.777Z,5756.00
2023-04-15T05:15:59.925Z,5905.00
2023-04-15T05:17:00.013Z,6238.00
2023-04-15T05:18:00.234Z,6398.00
2023-04-15T05:19:00.570Z,6564.00
2023-04-15T05:20:00.428Z,6683.00
2023-04-15T05:21:00.585Z,6071.00
2023-04-15T05:22:00.689Z,5471.00
2023-04-15T05:23:00.795Z,5009.00
2023-04-15T05:24:00.868Z,4815.00
2023-04-15T05:25:00.946Z,4511.00
2023-04-15T05:26:00.979Z,4095.00
2023-04-15T05:27:01.133Z,3842.00
2023-04-15T05:28:01.153Z,3868.00
2023-04-15T05:29:01.646Z,4084.00
2023-04-15T05:30:01.326Z,4411.00
2023-04-15T05:31:01.466Z,4630.00
2023-04-15T05:32:01.579Z,4957.00
2023-04-15T05:33:01.686Z,5474.00
2023-04-15T05:34:01.723Z,5487.00
2023-04-15T05:35:01.790Z,5031.00
2023-04-15T05:36:01.857Z,4722.00
2023-04-15T05:37:01.923Z,4608.00
2023-04-15T05:38:01.979Z,4529.00
2023-04-15T05:39:02.378Z,4062.00
2023-04-15T05:40:02.232Z,3786.00
2023-04-15T05:41:02.272Z,4106.00
2023-04-15T05:42:02.362Z,4795.00
2023-04-15T05:43:02.466Z,5249.00
2023-04-15T05:44:02.567Z,5449.00
2023-04-15T05:45:02.666Z,5721.00
2023-04-15T05:46:02.803Z,5376.00
2023-04-15T05:47:02.894Z,4957.00
2023-04-15T05:48:02.999Z,4885.00
2023-04-15T05:49:03.276Z,4873.00
2023-04-15T05:50:03.263Z,4916.00
2023-04-15T05:51:03.288Z,4887.00
2023-04-15T05:52:03.345Z,4675.00
2023-04-15T05:53:03.407Z,4162.00
2023-04-15T05:54:03.501Z,3670.00
2023-04-15T05:55:03.616Z,3402.00
2023-04-15T05:56:03.739Z,3036.00
2023-04-15T05:57:03.848Z,2738.00
2023-04-15T05:58:04.054Z,2555.00
2023-04-15T05:59:04.281Z,2236.00
2023-04-15T06:00:04.512Z,2052.00
2023-04-15T06:01:04.787Z,1975.00
2023-04-15T06:02:04.996Z,1861.00
2023-04-15T06:03:05.305Z,1969.00
2023-04-15T06:04:05.494Z,2406.00
2023-04-15T06:05:05.764Z,2727.00
2023-04-15T06:06:05.935Z,3142.00
2023-04-15T06:07:06.181Z,3504.00
2023-04-15T06:08:06.443Z,4025.00
2023-04-15T06:09:06.672Z,4613.00
2023-04-15T06:10:06.942Z,4721.00
2023-04-15T06:11:07.098Z,4367.00
2023-04-15T06:12:07.344Z,3868.00
2023-04-15T06:13:07.604Z,3699.00
2023-04-15T06:14:07.861Z,3485.00
2023-04-15T06:15:08.125Z,3399.00
2023-04-15T06:16:08.427Z,3238.00
2023-04-15T06:17:08.590Z,2868.00
2023-04-15T06:18:08.794Z,2603.00
2023-04-15T06:19:09.024Z,2386.00
2023-04-15T06:20:09.220Z,2209.00
2023-04-15T06:21:09.547Z,2166.00
2023-04-15T06:22:09.768Z,1969.00
2023-04-15T06:23:09.995Z,2082.00
2023-04-15T06:24:10.235Z,1969.00
2023-04-15T06:25:10.420Z,2000.00
2023-04-15T06:26:10.633Z,1975.00
2023-04-15T06:27:10.868Z,1943.00
2023-04-15T06:28:11.096Z,1874.00
2023-04-15T06:29:11.327Z,1776.00
2023-04-15T06:30:11.535Z,1639.00
2023-04-15T06:31:11.908Z,1867.00
2023-04-15T06:32:12.128Z,2018.00
2023-04-15T06:33:12.343Z,1860.00
2023-04-15T06:34:12.586Z,2207.00
2023-04-15T06:35:12.780Z,3244.00
2023-04-15T06:36:13.102Z,3661.00
2023-04-15T06:37:13.361Z,3631.00
2023-04-15T06:38:13.604Z,3693.00
2023-04-15T06:39:13.859Z,3840.00
2023-04-15T06:40:14.202Z,4024.00
2023-04-15T06:41:14.408Z,4069.00
2023-04-15T06:42:14.652Z,3853.00
2023-04-15T06:43:14.948Z,3715.00
2023-04-15T06:44:15.138Z,3614.00
2023-04-15T06:45:15.430Z,3536.00
2023-04-15T06:46:15.728Z,3608.00
2023-04-15T06:47:15.980Z,3613.00
2023-04-15T06:48:16.214Z,3677.00
2023-04-15T06:49:16.421Z,3709.00
2023-04-15T06:50:16.640Z,3631.00
2023-04-15T06:51:16.860Z,3501.00
2023-04-15T06:52:17.216Z,3433.00
2023-04-15T06:53:17.424Z,3411.00
2023-04-15T06:54:17.634Z,3245.00
2023-04-15T06:55:17.868Z,3079.00
2023-04-15T06:56:18.199Z,2954.00
2023-04-15T06:57:18.405Z,2830.00
2023-04-15T06:58:18.623Z,2677.00
2023-04-15T06:59:18.844Z,2491.00
2023-04-15T07:00:19.047Z,2296.00
2023-04-15T07:01:19.377Z,2151.00
2023-04-15T07:02:19.640Z,2305.00
2023-04-15T07:03:19.773Z,2661.00
2023-04-15T07:04:20.054Z,2917.00
2023-04-15T07:05:20.256Z,3493.00
2023-04-15T07:06:20.454Z,3770.00
2023-04-15T07:07:20.677Z,4098.00
2023-04-15T07:08:20.888Z,4139.00
2023-04-15T07:09:21.099Z,3848.00
2023-04-15T07:10:21.338Z,3518.00
2023-04-15T07:11:21.582Z,3316.00
2023-04-15T07:12:21.835Z,3109.00
2023-04-15T07:13:22.093Z,3032.00
2023-04-15T07:14:22.339Z,3055.00
2023-04-15T07:15:22.594Z,3136.00
2023-04-15T07:16:22.837Z,3153.00
2023-04-15T07:17:23.021Z,3337.00
2023-04-15T07:18:23.193Z,3360.00
2023-04-15T07:19:23.483Z,3711.00
2023-04-15T07:20:23.656Z,3963.00
2023-04-15T07:21:23.852Z,3938.00
2023-04-15T07:22:24.147Z,3538.00
2023-04-15T07:23:24.340Z,3258.00
2023-04-15T07:24:24.622Z,2992.00
2023-04-15T07:25:24.834Z,2767.00
2023-04-15T07:26:25.035Z,2652.00
2023-04-15T07:27:25.289Z,2530.00
2023-04-15T07:28:25.552Z,2359.00
2023-04-15T07:29:25.820Z,2186.00
2023-04-15T07:30:26.151Z,2093.00
2023-04-15T07:31:26.264Z,2021.00
2023-04-15T07:32:26.553Z,1955.00
2023-04-15T07:33:26.699Z,1840.00
2023-04-15T07:34:26.958Z,1753.00
2023-04-15T07:35:27.218Z,1681.00
2023-04-15T07:36:27.416Z,1765.00
2023-04-15T07:37:27.614Z,1742.00
2023-04-15T07:38:27.862Z,1661.00
2023-04-15T07:39:28.090Z,1573.00
2023-04-15T07:40:28.378Z,1591.00
2023-04-15T07:41:28.648Z,1556.00
2023-04-15T07:42:28.819Z,1545.00
2023-04-15T07:43:29.106Z,1503.00
2023-04-15T07:44:29.310Z,1469.00
2023-04-15T07:45:29.504Z,1481.00
2023-04-15T07:46:29.799Z,1535.00
2023-04-15T07:47:30.031Z,1556.00
2023-04-15T07:48:30.197Z,1552.00
2023-04-15T07:49:30.367Z,1520.00
2023-04-15T07:50:30.569Z,1437.00
2023-04-15T07:51:30.869Z,1304.00
2023-04-15T07:52:31.026Z,1255.00
2023-04-15T07:53:31.362Z,1176.00
2023-04-15T07:54:31.490Z,1218.00
2023-04-15T07:55:31.725Z,1074.00
2023-04-15T07:56:31.919Z,926.00
2023-04-15T07:57:32.129Z,763.00
2023-04-15T07:58:32.353Z,810.00
2023-04-15T07:59:32.568Z,858.00
2023-04-15T08:00:32.844Z,835.00
2023-04-15T08:01:33.108Z,940.00
2023-04-15T08:02:33.371Z,1007.00
2023-04-15T08:03:33.640Z,1304.00
2023-04-15T08:04:33.815Z,1769.00
2023-04-15T08:05:33.942Z,2391.00
2023-04-15T08:06:34.118Z,3077.00
2023-04-15T08:07:34.336Z,3231.00
2023-04-15T08:08:34.538Z,3065.00
2023-04-15T08:09:34.731Z,2951.00
2023-04-15T08:10:34.927Z,2929.00
2023-04-15T08:11:35.133Z,2903.00
2023-04-15T08:12:35.338Z,2836.00
2023-04-15T08:13:35.529Z,2844.00
2023-04-15T08:14:35.701Z,2744.00
2023-04-15T08:15:35.896Z,2851.00
2023-04-15T08:16:36.126Z,3046.00
2023-04-15T08:17:36.402Z,2819.00
2023-04-15T08:18:36.571Z,2715.00
2023-04-15T08:19:36.784Z,2667.00
2023-04-15T08:20:36.991Z,2614.00
2023-04-15T08:21:37.287Z,2409.00
2023-04-15T08:22:37.519Z,2217.00
2023-04-15T08:23:37.752Z,1981.00
2023-04-15T08:24:37.977Z,2177.00
2023-04-15T08:25:38.004Z,2196.00
2023-04-15T08:26:38.022Z,2149.00
2023-04-15T08:27:38.080Z,2030.00
2023-04-15T08:28:38.050Z,2010.00
2023-04-15T08:29:38.081Z,2392.00
2023-04-15T08:30:38.109Z,2976.00
2023-04-15T08:31:38.181Z,3474.00
2023-04-15T08:32:38.157Z,3898.00
2023-04-15T08:33:38.160Z,3742.00
2023-04-15T08:34:38.198Z,3180.00
2023-04-15T08:35:38.222Z,2767.00
2023-04-15T08:36:38.271Z,2731.00
2023-04-15T08:37:38.282Z,2981.00
2023-04-15T08:38:38.303Z,2813.00
2023-04-15T08:39:38.325Z,2803.00
2023-04-15T08:40:38.358Z,2709.00
2023-04-15T08:41:38.398Z,2539.00
2023-04-15T08:42:38.505Z,2618.00
2023-04-15T08:43:38.491Z,2981.00
2023-04-15T08:44:38.543Z,2787.00
2023-04-15T08:45:38.606Z,2319.00
2023-04-15T08:46:38.666Z,1956.00
2023-04-15T08:47:38.757Z,1773.00
2023-04-15T08:48:38.725Z,1776.00
2023-04-15T08:49:38.793Z,1865.00
2023-04-15T08:50:38.848Z,1866.00
2023-04-15T08:51:38.898Z,1749.00
2023-04-15T08:52:38.969Z,1958.00
2023-04-15T08:53:38.995Z,1778.00
2023-04-15T08:54:39.048Z,1722.00
2023-04-15T08:55:39.076Z,1780.00
2023-04-15T08:56:39.175Z,1574.00
2023-04-15T08:57:39.167Z,1435.00
2023-04-15T08:58:39.203Z,1369.00
2023-04-15T08:59:39.190Z,1284.00
2023-04-15T09:00:39.195Z,1761.00
2023-04-15T09:01:39.326Z,2261.00
2023-04-15T09:02:40.210Z,2535.00
2023-04-15T09:03:39.307Z,2458.00
2023-04-15T09:04:39.233Z,2153.00
2023-04-15T09:05:39.259Z,1675.00
2023-04-15T09:06:39.262Z,1279.00
2023-04-15T09:07:39.309Z,907.00
2023-04-15T09:08:39.326Z,627.00
2023-04-15T09:09:39.333Z,491.00
2023-04-15T09:10:39.313Z,420.00
2023-04-15T09:11:39.320Z,435.00
2023-04-15T09:12:39.369Z,566.00
2023-04-15T09:13:39.401Z,671.00
2023-04-15T09:14:39.422Z,1022.00
2023-04-15T09:15:39.457Z,1443.00
2023-04-15T09:16:39.485Z,1418.00
2023-04-15T09:17:39.513Z,1311.00
2023-04-15T09:18:39.449Z,1298.00
2023-04-15T09:19:39.420Z,1610.00
2023-04-15T09:20:39.419Z,1874.00
2023-04-15T09:21:39.404Z,1973.00
2023-04-15T09:22:39.394Z,1669.00
2023-04-15T09:23:39.378Z,1361.00
2023-04-15T09:24:39.409Z,1281.00
2023-04-15T09:25:39.400Z,1313.00
2023-04-15T09:26:39.412Z,1373.00
2023-04-15T09:27:39.427Z,1460.00
2023-04-15T09:28:39.413Z,1319.00
2023-04-15T09:29:39.409Z,1076.00
2023-04-15T09:30:39.465Z,807.00
2023-04-15T09:31:39.464Z,650.00
2023-04-15T09:32:39.505Z,584.00
2023-04-15T09:33:39.459Z,530.00
2023-04-15T09:34:39.450Z,497.00
2023-04-15T09:35:39.566Z,476.00
2023-04-15T09:36:39.795Z,466.00
2023-04-15T09:37:40.076Z,464.00
2023-04-15T09:38:40.224Z,507.00
2023-04-15T09:39:40.447Z,567.00
2023-04-15T09:40:40.596Z,593.00
2023-04-15T09:41:40.906Z,625.00
2023-04-15T09:42:41.080Z,727.00
2023-04-15T09:43:41.246Z,637.00
2023-04-15T09:44:41.401Z,587.00
2023-04-15T09:45:41.632Z,532.00
2023-04-15T09:46:41.865Z,518.00
2023-04-15T09:47:42.029Z,506.00
2023-04-15T09:48:42.203Z,503.00
2023-04-15T09:49:42.512Z,484.00
2023-04-15T09:50:42.644Z,449.00
2023-04-15T09:51:48.649Z,400.00
2023-04-15T09:52:43.823Z,400.00
2023-04-15T09:53:42.748Z,400.00
2023-04-15T09:54:42.671Z,400.00
2023-04-15T09:55:42.578Z,400.00
2023-04-15T09:56:42.500Z,400.00
2023-04-15T09:57:42.442Z,400.00
2023-04-15T09:58:42.368Z,400.00
2023-04-15T09:59:42.296Z,400.00
2023-04-15T10:00:42.224Z,400.00
2023-04-15T10:01:42.217Z,400.00
2023-04-15T10:02:42.214Z,400.00
2023-04-15T10:03:42.166Z,400.00
2023-04-15T10:04:42.111Z,400.00
2023-04-15T10:05:42.089Z,400.00
2023-04-15T10:06:42.064Z,400.00
2023-04-15T10:07:42.038Z,400.00
2023-04-15T10:08:41.996Z,400.00
2023-04-15T10:09:41.985Z,463.00
2023-04-15T10:10:41.873Z,535.00
2023-04-15T10:11:41.818Z,574.00
2023-04-15T10:12:41.772Z,573.00
2023-04-15T10:13:41.713Z,518.00
2023-04-15T10:14:41.643Z,507.00
2023-04-15T10:15:41.612Z,504.00
2023-04-15T10:16:41.519Z,481.00
2023-04-15T10:17:41.519Z,486.00
2023-04-15T10:18:41.428Z,505.00
2023-04-15T10:19:41.405Z,499.00
2023-04-15T10:20:41.380Z,528.00
2023-04-15T10:21:41.596Z,505.00
2023-04-15T10:22:41.707Z,505.00
2023-04-15T10:23:41.963Z,499.00
2023-04-15T10:24:42.155Z,515.00
2023-04-15T10:25:42.235Z,524.00
2023-04-15T10:26:42.400Z,500.00
2023-04-15T10:27:42.592Z,476.00
2023-04-15T10:28:42.787Z,479.00
2023-04-15T10:29:42.983Z,421.00
2023-04-15T10:30:43.207Z,400.00
2023-04-15T10:31:43.393Z,400.00
2023-04-15T10:32:43.582Z,400.00
2023-04-15T10:33:43.737Z,407.00
2023-04-15T10:34:43.911Z,464.00
2023-04-15T10:35:44.073Z,471.00
2023-04-15T10:36:44.324Z,502.00
2023-04-15T10:37:44.513Z,542.00
2023-04-15T10:38:44.687Z,528.00
2023-04-15T10:39:44.896Z,514.00
2023-04-15T10:40:45.061Z,501.00
2023-04-15T10:41:45.247Z,524.00
2023-04-15T10:42:45.439Z,520.00
2023-04-15T10:43:45.598Z,517.00
2023-04-15T10:44:45.851Z,574.00
2023-04-15T10:45:46.031Z,602.00
2023-04-15T10:46:46.218Z,621.00
2023-04-15T10:47:46.564Z,604.00
2023-04-15T10:48:46.612Z,532.00
2023-04-15T10:49:46.780Z,555.00
2023-04-15T10:50:47.068Z,570.00
2023-04-15T10:51:47.187Z,563.00
2023-04-15T10:52:47.555Z,557.00
2023-04-15T10:53:47.581Z,531.00
2023-04-15T10:54:47.838Z,501.00
2023-04-15T10:55:48.019Z,500.00
2023-04-15T10:56:48.224Z,504.00
2023-04-15T10:57:48.406Z,522.00
2023-04-15T10:58:48.605Z,600.00
2023-04-15T10:59:48.759Z,581.00
2023-04-15T11:00:48.924Z,552.00
2023-04-15T11:01:49.209Z,587.00
2023-04-15T11:02:49.442Z,639.00
2023-04-15T11:03:49.770Z,688.00
2023-04-15T11:04:49.754Z,744.00
2023-04-15T11:05:49.974Z,1075.00
2023-04-15T11:06:50.127Z,1747.00
2023-04-15T11:07:50.348Z,2485.00
2023-04-15T11:08:50.549Z,2938.00
2023-04-15T11:09:50.680Z,2763.00
2023-04-15T11:10:50.807Z,2721.00
2023-04-15T11:11:51.044Z,2714.00
2023-04-15T11:12:51.185Z,2859.00
2023-04-15T11:13:51.414Z,3210.00
2023-04-15T11:14:51.550Z,3613.00
2023-04-15T11:15:51.667Z,4115.00
2023-04-15T11:16:52.049Z,4385.00
2023-04-15T11:17:52.075Z,4185.00
2023-04-15T11:18:52.238Z,4104.00
2023-04-15T11:19:52.439Z,3978.00
2023-04-15T11:20:52.655Z,4066.00
2023-04-15T11:21:52.812Z,4410.00
2023-04-15T11:22:52.957Z,4695.00
2023-04-15T11:23:53.848Z,4706.00
2023-04-15T11:24:52.738Z,4761.00
2023-04-15T11:25:52.620Z,4886.00
2023-04-15T11:26:52.510Z,4876.00
2023-04-15T11:27:52.448Z,4853.00
2023-04-15T11:28:52.311Z,4974.00
2023-04-15T11:29:52.195Z,5156.00
2023-04-15T11:30:52.108Z,5141.00
2023-04-15T11:31:52.047Z,4992.00
2023-04-15T11:32:51.999Z,4553.00
2023-04-15T11:33:51.878Z,4171.00
2023-04-15T11:34:51.825Z,4348.00
2023-04-15T11:35:51.761Z,4443.00
2023-04-15T11:36:51.716Z,4412.00
2023-04-15T11:37:51.653Z,4179.00
2023-04-15T11:38:51.823Z,4003.00
2023-04-15T11:39:52.055Z,3819.00
2023-04-15T11:40:52.069Z,3593.00
2023-04-15T11:41:52.260Z,3311.00
2023-04-15T11:42:52.520Z,3111.00
2023-04-15T11:43:52.616Z,2928.00
2023-04-15T11:44:52.872Z,2952.00
2023-04-15T11:45:53.320Z,2924.00
2023-04-15T11:46:53.224Z,2823.00
2023-04-15T11:47:53.443Z,2801.00
2023-04-15T11:48:53.656Z,2815.00
2023-04-15T11:49:53.879Z,3059.00
2023-04-15T11:50:54.018Z,3316.00
2023-04-15T11:51:54.242Z,3717.00
2023-04-15T11:52:54.361Z,3839.00
2023-04-15T11:53:54.580Z,3824.00
2023-04-15T11:54:54.712Z,3644.00
2023-04-15T11:55:54.918Z,3931.00
2023-04-15T11:56:55.048Z,4425.00
2023-04-15T11:57:55.267Z,4700.00
2023-04-15T11:58:55.395Z,5000.00
2023-04-15T11:59:55.632Z,5129.00
2023-04-15T12:00:55.858Z,4999.00
2023-04-15T12:01:56.018Z,4806.00
2023-04-15T12:02:56.343Z,5023.00
2023-04-15T12:03:56.504Z,5173.00
2023-04-15T12:04:56.604Z,5409.00
2023-04-15T12:05:56.805Z,5644.00
2023-04-15T12:06:57.040Z,5332.00
2023-04-15T12:07:57.943Z,5061.00
2023-04-15T12:08:56.844Z,4691.00
2023-04-15T12:09:56.731Z,4413.00
2023-04-15T12:10:56.616Z,4182.00
2023-04-15T12:11:56.501Z,4178.00
2023-04-15T12:12:56.387Z,4413.00
2023-04-15T12:13:56.271Z,4332.00